Time;durP1;ratioP1;P1;durP2;ratioP2;P2;SDS_P1;SDS_P2;PMS_P1;PMS_P2;Temp;Humidity;BMP_temperature;BMP_pressure;BME280_temperature;BME280_humidity;BME280_pressure;Samples;Min_cycle;Max_cycle;Signal;HPM_P1;HPM_P2
2022/06/17 00:01:04;;;;;;;16.58;8.70;;;;;;;;;;5102352;28;20063;-76
2022/06/17 00:03:31;;;;;;;13.07;8.85;;;;;;;;;;5073701;28;20056;-75
2022/06/17 00:05:59;;;;;;;11.75;9.43;;;;;;;;;;5096098;28;20087;-76
2022/06/17 00:08:31;;;;;;;13.68;9.18;;;;;;;;;;5093294;28;20052;-75
2022/06/17 00:10:57;;;;;;;18.77;9.55;;;;;;;;;;5101023;28;20044;-76
2022/06/17 00:13:24;;;;;;;14.25;10.25;;;;;;;;;;5100040;28;20051;-76
2022/06/17 00:15:51;;;;;;;13.52;9.52;;;;;;;;;;5102967;28;20052;-75
2022/06/17 00:18:18;;;;;;;13.95;9.00;;;;;;;;;;5088457;28;20056;-74
2022/06/17 00:20:45;;;;;;;13.48;9.95;;;;;;;;;;5097901;28;20125;-75
2022/06/17 00:23:14;;;;;;;14.35;9.48;;;;;;;;;;5088020;28;20056;-75
2022/06/17 00:25:41;;;;;;;18.70;10.02;;;;;;;;;;5093113;27;20048;-75
2022/06/17 00:28:11;;;;;;;12.98;9.18;;;;;;;;;;5080910;28;20062;-75
2022/06/17 00:30:38;;;;;;;15.65;9.43;;;;;;;;;;5076818;28;20431;-75
2022/06/17 00:33:05;;;;;;;15.90;10.20;;;;;;;;;;5085032;28;20481;-76
2022/06/17 00:35:34;;;;;;;16.33;11.15;;;;;;;;;;5100182;27;20058;-75
2022/06/17 00:38:01;;;;;;;17.27;11.38;;;;;;;;;;5083031;28;20168;-76
2022/06/17 00:40:29;;;;;;;15.27;11.23;;;;;;;;;;5101303;27;20537;-75
2022/06/17 00:42:56;;;;;;;12.57;10.35;;;;;;;;;;5099477;27;20048;-76
2022/06/17 00:45:25;;;;;;;17.40;11.05;;;;;;;;;;5098355;28;20052;-74
2022/06/17 00:48:11;;;;;;;15.75;11.65;;;;;;;;;;5095862;27;20131;-75
2022/06/17 00:50:37;;;;;;;17.40;11.00;;;;;;;;;;5092963;27;20063;-76
2022/06/17 00:53:09;;;;;;;15.75;11.57;;;;;;;;;;5077741;28;20934;-76
2022/06/17 00:55:48;;;;;;;13.90;10.98;;;;;;;;;;5089583;28;20051;-75
2022/06/17 00:58:16;;;;;;;15.77;10.30;;;;;;;;;;5096365;27;20139;-75
2022/06/17 01:00:44;;;;;;;14.68;9.88;;;;;;;;;;5100273;27;20584;-74
2022/06/17 01:03:14;;;;;;;15.65;10.63;;;;;;;;;;5104043;28;20560;-76
2022/06/17 01:05:42;;;;;;;14.55;10.63;;;;;;;;;;5079881;28;20133;-75
2022/06/17 01:09:57;;;;;;;14.10;9.85;;;;;;;;;;5083443;28;20092;-75
2022/06/17 01:11:07;;;;;;;14.77;9.15;;;;;;;;;;5092386;28;20159;-75
2022/06/17 01:13:34;;;;;;;14.07;9.55;;;;;;;;;;5089215;28;20598;-74
2022/06/17 01:16:01;;;;;;;15.38;9.88;;;;;;;;;;5093971;28;20053;-74
2022/06/17 01:18:30;;;;;;;12.93;9.93;;;;;;;;;;5086407;28;20165;-74
2022/06/17 01:20:56;;;;;;;15.70;10.00;;;;;;;;;;5091837;28;20052;-74
2022/06/17 01:23:23;;;;;;;14.95;10.27;;;;;;;;;;5075611;28;20773;-74
2022/06/17 01:25:49;;;;;;;15.32;9.90;;;;;;;;;;5098716;27;20052;-76
2022/06/17 01:28:17;;;;;;;18.35;10.93;;;;;;;;;;5093019;28;20636;-74
2022/06/17 01:30:44;;;;;;;14.80;11.00;;;;;;;;;;5095824;28;20051;-75
2022/06/17 01:33:17;;;;;;;17.73;13.20;;;;;;;;;;5102717;28;20179;-74
2022/06/17 01:35:49;;;;;;;16.20;12.70;;;;;;;;;;5096272;28;21648;-74
2022/06/17 01:38:16;;;;;;;15.80;12.00;;;;;;;;;;5091402;27;20492;-75
2022/06/17 01:40:42;;;;;;;17.30;11.90;;;;;;;;;;5091196;28;20139;-75
2022/06/17 01:43:11;;;;;;;19.00;11.85;;;;;;;;;;5072328;28;20060;-75
2022/06/17 01:45:44;;;;;;;16.48;11.65;;;;;;;;;;5092506;28;20051;-74
2022/06/17 01:48:12;;;;;;;16.33;11.75;;;;;;;;;;5072235;27;20160;-74
2022/06/17 01:50:40;;;;;;;15.75;10.85;;;;;;;;;;5093316;28;20051;-75
2022/06/17 01:53:15;;;;;;;15.10;11.25;;;;;;;;;;5095317;27;20052;-75
2022/06/17 01:55:45;;;;;;;14.70;10.30;;;;;;;;;;5071362;28;20052;-75
2022/06/17 01:58:26;;;;;;;15.90;10.37;;;;;;;;;;5087288;28;20059;-75
2022/06/17 02:00:53;;;;;;;13.90;9.93;;;;;;;;;;5098731;28;20063;-74
2022/06/17 02:03:24;;;;;;;13.18;9.73;;;;;;;;;;5086746;28;20762;-74
2022/06/17 02:05:53;;;;;;;15.00;10.07;;;;;;;;;;5099989;28;20135;-74
2022/06/17 02:08:20;;;;;;;18.02;10.88;;;;;;;;;;5091325;28;20048;-75
2022/06/17 02:10:49;;;;;;;14.15;10.20;;;;;;;;;;5093916;28;20056;-73
2022/06/17 02:13:15;;;;;;;14.98;9.45;;;;;;;;;;5096247;28;20060;-76
2022/06/17 02:15:42;;;;;;;15.77;10.25;;;;;;;;;;5070818;28;20058;-75
2022/06/17 02:18:13;;;;;;;14.32;9.55;;;;;;;;;;5068373;28;20698;-75
2022/06/17 02:20:40;;;;;;;15.88;9.95;;;;;;;;;;5098697;28;20063;-74
2022/06/17 02:23:07;;;;;;;12.68;8.70;;;;;;;;;;5073719;28;20044;-75
2022/06/17 02:25:49;;;;;;;13.23;9.13;;;;;;;;;;5095575;28;20059;-74
2022/06/17 02:28:18;;;;;;;15.25;8.55;;;;;;;;;;5098984;28;20168;-74
2022/06/17 02:30:46;;;;;;;14.23;9.55;;;;;;;;;;5088341;28;20048;-74
2022/06/17 02:33:13;;;;;;;16.95;10.23;;;;;;;;;;5093765;28;20064;-74
2022/06/17 02:35:44;;;;;;;12.65;9.60;;;;;;;;;;5098915;27;20080;-76
2022/06/17 02:38:15;;;;;;;12.63;9.52;;;;;;;;;;5085713;28;20052;-75
2022/06/17 02:40:41;;;;;;;;;;;;;;;;;;5102762;28;20063;-75
2022/06/17 02:43:12;;;;;;;18.13;12.05;;;;;;;;;;5091774;28;47523;-75
2022/06/17 02:45:42;;;;;;;13.27;10.85;;;;;;;;;;5080449;28;20058;-75
2022/06/17 02:48:17;;;;;;;14.68;10.93;;;;;;;;;;5089958;28;20060;-75
2022/06/17 02:50:44;;;;;;;13.43;10.32;;;;;;;;;;5100873;28;20081;-75
2022/06/17 02:53:12;;;;;;;15.38;11.23;;;;;;;;;;5094581;27;20048;-74
2022/06/17 02:55:40;;;;;;;16.45;10.18;;;;;;;;;;5091363;28;20144;-76
2022/06/17 02:58:13;;;;;;;13.18;9.60;;;;;;;;;;5094283;28;20891;-74
2022/06/17 03:00:40;;;;;;;15.25;10.07;;;;;;;;;;5085203;28;20049;-74
2022/06/17 03:03:08;;;;;;;16.08;10.40;;;;;;;;;;5073000;28;20519;-74
2022/06/17 03:05:37;;;;;;;14.68;10.63;;;;;;;;;;5100181;27;20055;-75
2022/06/17 03:08:13;;;;;;;14.60;9.65;;;;;;;;;;5092778;28;20049;-74
2022/06/17 03:10:41;;;;;;;13.60;9.75;;;;;;;;;;5064559;28;20063;-75
2022/06/17 03:13:16;;;;;;;15.63;10.63;;;;;;;;;;5086475;28;20469;-75
2022/06/17 03:15:43;;;;;;;13.85;10.30;;;;;;;;;;5093135;27;20130;-75
2022/06/17 03:18:10;;;;;;;13.38;10.40;;;;;;;;;;5069708;28;20057;-74
2022/06/17 03:20:37;;;;;;;15.93;10.65;;;;;;;;;;5089947;28;20596;-74
2022/06/17 03:23:13;;;;;;;14.13;10.52;;;;;;;;;;5090669;28;20241;-74
2022/06/17 03:25:43;;;;;;;14.32;10.77;;;;;;;;;;5089347;28;20052;-75
2022/06/17 03:28:12;;;;;;;16.40;11.00;;;;;;;;;;5089183;27;20072;-75
2022/06/17 03:30:58;;;;;;;15.35;10.93;;;;;;;;;;5078321;28;20047;-75
2022/06/17 03:33:32;;;;;;;15.32;10.82;;;;;;;;;;5074993;28;20139;-73
2022/06/17 03:36:00;;;;;;;14.45;10.40;;;;;;;;;;5092558;27;20056;-75
2022/06/17 03:38:29;;;;;;;19.08;11.63;;;;;;;;;;5088496;28;20053;-76
2022/06/17 03:41:04;;;;;;;14.23;9.98;;;;;;;;;;5088067;28;20072;-74
2022/06/17 03:43:35;;;;;;;12.60;8.75;;;;;;;;;;5102204;28;20139;-74
2022/06/17 03:46:03;;;;;;;13.23;8.98;;;;;;;;;;5075025;28;20464;-74
2022/06/17 03:48:49;;;;;;;13.88;9.63;;;;;;;;;;5091059;28;20079;-74
2022/06/17 03:51:20;;;;;;;13.32;9.88;;;;;;;;;;5100226;28;20078;-75
2022/06/17 03:53:46;;;;;;;15.15;10.30;;;;;;;;;;5091246;28;20537;-74
2022/06/17 03:56:23;;;;;;;16.25;10.20;;;;;;;;;;5098492;27;20136;-74
2022/06/17 03:58:51;;;;;;;16.92;10.52;;;;;;;;;;5095440;27;20585;-75
2022/06/17 04:01:35;;;;;;;15.68;10.90;;;;;;;;;;5092786;28;20159;-74
2022/06/17 04:04:05;;;;;;;13.27;10.25;;;;;;;;;;5086837;28;20055;-74
2022/06/17 04:06:36;;;;;;;14.65;9.90;;;;;;;;;;5089243;28;20059;-74
2022/06/17 04:09:02;;;;;;;;;;;;;;;;;;5091565;28;20076;-75
2022/06/17 04:11:32;;;;;;;15.73;10.32;;;;;;;;;;5101873;28;45325;-75
2022/06/17 04:14:00;;;;;;;15.15;10.80;;;;;;;;;;5091301;28;20048;-74
2022/06/17 04:16:31;;;;;;;13.40;10.32;;;;;;;;;;5094656;27;20270;-74
2022/06/17 04:19:02;;;;;;;14.90;10.50;;;;;;;;;;5092795;27;20143;-75
2022/06/17 04:21:28;;;;;;;13.43;10.18;;;;;;;;;;5103432;27;20055;-74
2022/06/17 04:23:55;;;;;;;14.75;10.88;;;;;;;;;;5092680;28;20155;-74
2022/06/17 04:26:30;;;;;;;17.25;11.07;;;;;;;;;;5087523;28;20058;-74
2022/06/17 04:28:56;;;;;;;17.05;11.43;;;;;;;;;;5079214;28;20048;-75
2022/06/17 04:31:23;;;;;;;18.98;11.45;;;;;;;;;;5103689;27;20052;-74
2022/06/17 04:34:14;;;;;;;15.38;10.82;;;;;;;;;;5082259;28;20052;-75
2022/06/17 04:36:50;;;;;;;15.32;10.77;;;;;;;;;;5078592;27;20056;-74
2022/06/17 04:39:16;;;;;;;16.38;11.13;;;;;;;;;;5104481;27;20048;-75
2022/06/17 04:41:43;;;;;;;15.50;10.85;;;;;;;;;;5093107;28;20074;-74
2022/06/17 04:44:12;;;;;;;17.02;11.40;;;;;;;;;;5096103;28;20052;-75
2022/06/17 04:46:47;;;;;;;15.90;10.95;;;;;;;;;;5103239;28;20055;-75
2022/06/17 04:49:16;;;;;;;17.20;10.68;;;;;;;;;;5096305;28;20052;-75
2022/06/17 04:51:42;;;;;;;14.60;10.25;;;;;;;;;;5090879;27;20052;-75
2022/06/17 04:54:10;;;;;;;14.07;10.68;;;;;;;;;;5093714;27;20056;-75
2022/06/17 04:56:42;;;;;;;14.70;10.52;;;;;;;;;;5083883;28;20048;-75
2022/06/17 04:59:27;;;;;;;14.90;10.05;;;;;;;;;;5097675;28;20058;-74
2022/06/17 05:01:53;;;;;;;14.63;10.48;;;;;;;;;;5084770;27;20143;-75
2022/06/17 05:04:20;;;;;;;16.30;10.13;;;;;;;;;;5094594;28;20180;-74
2022/06/17 05:06:46;;;;;;;19.00;11.25;;;;;;;;;;5088740;28;20051;-74
2022/06/17 05:09:33;;;;;;;15.13;10.57;;;;;;;;;;5085646;28;20257;-75
2022/06/17 05:12:03;;;;;;;16.70;11.00;;;;;;;;;;5067908;28;20062;-76
2022/06/17 05:14:30;;;;;;;;;;;;;;;;;;5101769;27;20059;-75
2022/06/17 05:16:56;;;;;;;14.07;10.35;;;;;;;;;;5087817;28;46999;-74
2022/06/17 05:19:23;;;;;;;15.73;10.55;;;;;;;;;;5067809;28;20677;-74
2022/06/17 05:21:49;;;;;;;14.43;10.50;;;;;;;;;;5091324;27;20048;-76
2022/06/17 05:24:16;;;;;;;16.33;10.45;;;;;;;;;;5100795;28;20051;-76
2022/06/17 05:26:42;;;;;;;13.40;9.95;;;;;;;;;;5093035;27;20078;-75
2022/06/17 05:29:09;;;;;;;16.55;9.50;;;;;;;;;;5087809;28;20048;-74
2022/06/17 05:31:35;;;;;;;15.30;9.43;;;;;;;;;;5098860;28;20058;-75
2022/06/17 05:34:03;;;;;;;13.52;9.73;;;;;;;;;;5088161;27;20048;-75
2022/06/17 05:36:29;;;;;;;14.88;9.73;;;;;;;;;;5094068;27;20048;-76
2022/06/17 05:38:56;;;;;;;15.15;9.40;;;;;;;;;;5091214;28;20052;-75
2022/06/17 05:41:24;;;;;;;13.60;9.57;;;;;;;;;;5096911;28;20052;-75
2022/06/17 05:43:51;;;;;;;16.38;9.57;;;;;;;;;;5093305;28;20129;-75
2022/06/17 05:46:18;;;;;;;12.23;8.73;;;;;;;;;;5078560;28;20147;-75
2022/06/17 05:48:45;;;;;;;17.55;9.80;;;;;;;;;;5089368;27;20166;-75
2022/06/17 05:51:11;;;;;;;13.32;8.77;;;;;;;;;;5093803;28;20055;-75
2022/06/17 05:53:37;;;;;;;11.60;8.38;;;;;;;;;;5072903;28;20058;-75
2022/06/17 05:56:04;;;;;;;12.00;8.23;;;;;;;;;;5087381;28;20052;-75
2022/06/17 05:58:30;;;;;;;11.80;8.32;;;;;;;;;;5103854;28;20056;-75
2022/06/17 06:00:56;;;;;;;13.93;8.85;;;;;;;;;;5094956;28;20135;-75
2022/06/17 06:03:24;;;;;;;11.93;8.38;;;;;;;;;;5089541;28;20083;-75
2022/06/17 06:05:51;;;;;;;11.35;8.10;;;;;;;;;;5094710;28;20052;-75
2022/06/17 06:08:18;;;;;;;13.35;8.57;;;;;;;;;;5089354;28;20058;-75
2022/06/17 06:10:44;;;;;;;12.70;7.75;;;;;;;;;;5101490;28;20052;-76
2022/06/17 06:13:15;;;;;;;12.57;7.97;;;;;;;;;;5096243;28;20056;-75
2022/06/17 06:15:42;;;;;;;12.77;7.50;;;;;;;;;;5087820;28;20052;-75
2022/06/17 06:18:11;;;;;;;12.80;7.10;;;;;;;;;;5062916;28;20056;-75
2022/06/17 06:20:37;;;;;;;11.38;7.38;;;;;;;;;;5079315;28;20056;-75
2022/06/17 06:23:04;;;;;;;12.60;7.10;;;;;;;;;;5084800;28;20433;-75
2022/06/17 06:25:30;;;;;;;13.73;6.85;;;;;;;;;;5091011;28;20071;-75
2022/06/17 06:27:57;;;;;;;11.20;6.90;;;;;;;;;;5098167;28;20082;-75
2022/06/17 06:30:25;;;;;;;11.60;7.28;;;;;;;;;;5067253;28;20583;-76
2022/06/17 06:32:55;;;;;;;10.48;6.93;;;;;;;;;;5090936;28;20205;-75
2022/06/17 06:35:23;;;;;;;11.52;6.95;;;;;;;;;;5083629;28;20147;-75
2022/06/17 06:37:50;;;;;;;12.30;6.80;;;;;;;;;;5094249;28;20056;-75
2022/06/17 06:40:17;;;;;;;12.60;6.60;;;;;;;;;;5099961;27;20115;-75
2022/06/17 06:42:45;;;;;;;12.23;7.43;;;;;;;;;;5099286;28;20545;-74
2022/06/17 06:45:13;;;;;;;11.43;7.18;;;;;;;;;;5103975;28;20055;-75
2022/06/17 06:47:40;;;;;;;10.70;6.97;;;;;;;;;;5102327;28;20536;-75
2022/06/17 06:50:10;;;;;;;10.23;7.38;;;;;;;;;;5078056;28;20052;-76
2022/06/17 06:52:36;;;;;;;11.35;6.88;;;;;;;;;;5100475;27;20134;-75
2022/06/17 06:55:08;;;;;;;12.57;7.10;;;;;;;;;;5101788;28;20570;-75
2022/06/17 06:57:34;;;;;;;11.93;6.90;;;;;;;;;;5083280;28;20059;-77
2022/06/17 07:00:03;;;;;;;13.23;7.05;;;;;;;;;;5103761;27;20143;-75
2022/06/17 07:02:29;;;;;;;11.57;6.45;;;;;;;;;;5099887;28;20091;-75
2022/06/17 07:04:55;;;;;;;12.65;7.10;;;;;;;;;;5083881;28;20633;-75
2022/06/17 07:07:22;;;;;;;11.75;6.97;;;;;;;;;;5087748;28;20048;-74
2022/06/17 07:09:48;;;;;;;8.43;6.18;;;;;;;;;;5088336;28;20494;-74
2022/06/17 07:12:15;;;;;;;9.07;5.82;;;;;;;;;;5093499;28;20048;-76
2022/06/17 07:14:41;;;;;;;10.40;6.40;;;;;;;;;;5091919;28;20048;-76
2022/06/17 07:17:08;;;;;;;9.30;5.90;;;;;;;;;;5091120;28;20066;-76
2022/06/17 07:19:35;;;;;;;8.48;5.97;;;;;;;;;;5097143;28;20052;-74
2022/06/17 07:22:01;;;;;;;10.52;6.07;;;;;;;;;;5071589;28;20052;-74
2022/06/17 07:24:27;;;;;;;9.35;6.55;;;;;;;;;;5097323;28;20059;-74
2022/06/17 07:26:54;;;;;;;11.73;6.43;;;;;;;;;;5088400;28;20067;-75
2022/06/17 07:29:20;;;;;;;9.88;6.35;;;;;;;;;;5099829;28;20052;-74
2022/06/17 07:31:46;;;;;;;10.63;5.70;;;;;;;;;;5102872;28;20066;-74
2022/06/17 07:34:12;;;;;;;10.05;5.38;;;;;;;;;;5096399;28;20048;-74
2022/06/17 07:42:09;;;;;;;11.95;6.13;;;;;;;;;;5089895;28;20049;-73
2022/06/17 07:44:37;;;;;;;13.52;5.70;;;;;;;;;;5087208;28;21054;-73
2022/06/17 07:47:04;;;;;;;11.25;5.75;;;;;;;;;;5098399;28;20052;-73
2022/06/17 07:49:31;;;;;;;14.45;5.90;;;;;;;;;;5108122;28;20054;-74
2022/06/17 07:52:01;;;;;;;10.20;5.10;;;;;;;;;;5107451;27;20560;-73
2022/06/17 07:54:27;;;;;;;8.82;5.00;;;;;;;;;;5101289;27;20977;-73
2022/06/17 07:56:54;;;;;;;11.60;5.00;;;;;;;;;;5091445;27;20485;-74
2022/06/17 07:59:20;;;;;;;9.13;5.18;;;;;;;;;;5099139;28;20529;-74
2022/06/17 08:01:47;;;;;;;10.32;4.97;;;;;;;;;;5094096;28;20052;-74
2022/06/17 08:04:13;;;;;;;10.85;4.82;;;;;;;;;;5097323;28;20063;-74
2022/06/17 08:06:39;;;;;;;7.30;4.05;;;;;;;;;;5074190;28;20106;-74
2022/06/17 08:09:06;;;;;;;7.57;4.43;;;;;;;;;;5086998;28;20048;-74
2022/06/17 08:11:32;;;;;;;8.07;4.45;;;;;;;;;;5099039;27;20059;-73
2022/06/17 08:13:59;;;;;;;9.25;4.20;;;;;;;;;;5103425;27;20051;-73
2022/06/17 08:16:25;;;;;;;6.57;4.55;;;;;;;;;;5095475;27;20052;-73
2022/06/17 08:18:51;;;;;;;11.25;4.78;;;;;;;;;;5093758;28;20139;-74
2022/06/17 08:21:18;;;;;;;10.80;5.05;;;;;;;;;;5094933;27;20519;-74
2022/06/17 08:24:04;;;;;;;8.98;4.13;;;;;;;;;;5097907;27;20063;-74
2022/06/17 08:26:31;;;;;;;8.48;4.80;;;;;;;;;;5088054;28;20117;-73
2022/06/17 08:28:57;;;;;;;10.05;4.30;;;;;;;;;;5106092;28;20048;-74
2022/06/17 08:31:24;;;;;;;8.30;4.07;;;;;;;;;;5105748;28;20078;-74
2022/06/17 08:33:51;;;;;;;7.95;4.63;;;;;;;;;;5097357;28;20500;-75
2022/06/17 08:36:19;;;;;;;6.82;4.55;;;;;;;;;;5098742;27;20139;-73
2022/06/17 08:38:54;;;;;;;8.57;4.60;;;;;;;;;;5069811;28;20500;-74
2022/06/17 08:41:23;;;;;;;9.55;5.35;;;;;;;;;;5084964;28;20511;-73
2022/06/17 08:43:56;;;;;;;8.57;4.90;;;;;;;;;;5089538;28;20056;-74
2022/06/17 08:46:34;;;;;;;12.43;5.70;;;;;;;;;;5088267;28;20056;-74
2022/06/17 08:49:20;;;;;;;7.07;5.22;;;;;;;;;;5101215;28;20048;-73
2022/06/17 08:51:56;;;;;;;8.27;5.10;;;;;;;;;;5094873;28;20411;-74
2022/06/17 08:54:41;;;;;;;8.82;5.22;;;;;;;;;;5091981;27;20500;-73
2022/06/17 08:57:11;;;;;;;8.32;4.90;;;;;;;;;;5081462;28;20880;-73
2022/06/17 08:59:37;;;;;;;;;;;;;;;;;;5089826;28;20052;-74
2022/06/17 09:02:18;;;;;;;9.40;5.45;;;;;;;;;;5091752;28;48130;-74
2022/06/17 09:04:45;;;;;;;11.02;5.00;;;;;;;;;;5094237;27;20059;-74
2022/06/17 09:07:11;;;;;;;10.52;5.05;;;;;;;;;;5078402;28;20118;-74
2022/06/17 09:09:41;;;;;;;9.80;5.18;;;;;;;;;;5092515;28;20509;-74
2022/06/17 09:12:13;;;;;;;7.50;4.50;;;;;;;;;;5091849;27;20059;-73
2022/06/17 09:15:16;;;;;;;8.48;4.97;;;;;;;;;;5096063;27;20056;-74
2022/06/17 09:17:49;;;;;;;9.15;3.92;;;;;;;;;;5031880;28;20053;-73
2022/06/17 09:20:18;;;;;;;6.93;3.65;;;;;;;;;;5072375;28;20531;-73
2022/06/17 09:22:49;;;;;;;13.13;3.80;;;;;;;;;;5091011;28;20052;-74
2022/06/17 09:25:17;;;;;;;8.40;3.67;;;;;;;;;;5078422;28;20063;-73
2022/06/17 09:27:45;;;;;;;9.25;3.92;;;;;;;;;;5087203;28;20060;-73
2022/06/17 09:30:15;;;;;;;9.13;3.53;;;;;;;;;;5087040;28;20530;-74
2022/06/17 09:32:48;;;;;;;9.20;3.60;;;;;;;;;;5082572;28;20826;-75
2022/06/17 09:35:41;;;;;;;8.07;3.60;;;;;;;;;;5065961;28;20684;-75
2022/06/17 09:38:13;;;;;;;11.57;3.88;;;;;;;;;;5086281;28;20167;-75
2022/06/17 09:40:46;;;;;;;8.00;3.90;;;;;;;;;;5086758;28;20139;-76
2022/06/17 09:43:26;;;;;;;9.35;3.17;;;;;;;;;;5091516;27;20549;-75
2022/06/17 09:45:55;;;;;;;6.97;3.08;;;;;;;;;;5095122;28;20133;-75
2022/06/17 09:48:25;;;;;;;9.45;3.20;;;;;;;;;;5092793;27;20060;-75
2022/06/17 09:50:58;;;;;;;6.22;2.90;;;;;;;;;;5093362;28;20074;-75
2022/06/17 09:53:29;;;;;;;7.85;3.10;;;;;;;;;;5075804;28;20056;-75
2022/06/17 09:55:59;;;;;;;7.72;3.10;;;;;;;;;;5096897;28;20113;-76
2022/06/17 09:58:30;;;;;;;7.45;3.42;;;;;;;;;;5073982;28;20188;-75
2022/06/17 10:00:57;;;;;;;10.60;3.10;;;;;;;;;;5089943;28;20149;-75
2022/06/17 10:03:25;;;;;;;9.52;3.17;;;;;;;;;;5068171;28;20507;-76
2022/06/17 10:06:04;;;;;;;7.18;3.50;;;;;;;;;;5091687;27;20577;-75
2022/06/17 10:08:40;;;;;;;5.45;2.70;;;;;;;;;;5091221;28;20048;-75
2022/06/17 10:11:11;;;;;;;5.72;2.58;;;;;;;;;;5093800;28;20143;-75
2022/06/17 10:13:43;;;;;;;5.70;2.78;;;;;;;;;;5087655;28;20048;-74
2022/06/17 10:19:06;;;;;;;5.75;2.80;;;;;;;;;;5083428;28;20049;-75
2022/06/17 10:22:09;;;;;;;5.55;2.80;;;;;;;;;;5088585;28;20060;-75
2022/06/17 10:24:54;;;;;;;7.97;3.22;;;;;;;;;;4962087;28;20485;-76
2022/06/17 10:27:32;;;;;;;7.47;2.88;;;;;;;;;;5091244;27;20062;-75
2022/06/17 10:30:18;;;;;;;7.13;2.53;;;;;;;;;;5093833;28;20056;-75
2022/06/17 10:32:48;;;;;;;7.85;2.47;;;;;;;;;;5103012;28;20048;-75
2022/06/17 10:35:25;;;;;;;6.38;2.65;;;;;;;;;;5085053;28;20054;-75
2022/06/17 10:37:51;;;;;;;6.63;2.72;;;;;;;;;;5084411;28;20052;-75
2022/06/17 10:40:22;;;;;;;7.18;2.65;;;;;;;;;;5093030;28;20052;-75
2022/06/17 10:42:50;;;;;;;5.15;2.78;;;;;;;;;;5103802;28;20052;-75
2022/06/17 10:45:17;;;;;;;7.57;2.92;;;;;;;;;;5102091;28;20086;-75
2022/06/17 10:47:55;;;;;;;6.63;2.88;;;;;;;;;;5098781;27;20070;-75
2022/06/17 10:50:27;;;;;;;7.28;3.00;;;;;;;;;;5094939;28;20056;-75
2022/06/17 10:53:16;;;;;;;6.73;2.90;;;;;;;;;;5083917;28;20048;-76
2022/06/17 10:55:45;;;;;;;7.32;3.30;;;;;;;;;;5100450;27;20086;-76
2022/06/17 10:58:26;;;;;;;6.35;2.92;;;;;;;;;;5084644;28;20148;-76
2022/06/17 11:00:55;;;;;;;7.32;3.28;;;;;;;;;;5098950;27;20149;-75
2022/06/17 11:03:35;;;;;;;5.75;2.88;;;;;;;;;;5092535;28;20472;-76
2022/06/17 11:06:08;;;;;;;5.38;2.47;;;;;;;;;;5086672;28;20168;-77
2022/06/17 11:08:37;;;;;;;6.30;2.92;;;;;;;;;;5078060;27;20132;-77
2022/06/17 11:13:50;;;;;;;5.38;2.65;;;;;;;;;;5096607;28;20059;-76
2022/06/17 11:16:20;;;;;;;9.80;2.90;;;;;;;;;;5087610;28;20090;-77
2022/06/17 11:19:00;;;;;;;7.13;3.00;;;;;;;;;;5088332;27;20063;-76
2022/06/17 11:21:46;;;;;;;7.82;3.20;;;;;;;;;;5085719;28;20044;-77
2022/06/17 11:24:21;;;;;;;7.57;2.67;;;;;;;;;;5064827;28;20052;-76
2022/06/17 11:27:03;;;;;;;6.00;2.92;;;;;;;;;;5077816;28;20499;-76
2022/06/17 11:29:37;;;;;;;7.03;2.90;;;;;;;;;;5095802;28;20076;-77
2022/06/17 11:32:25;;;;;;;8.00;2.95;;;;;;;;;;5090436;27;20055;-76
2022/06/17 11:34:55;;;;;;;7.93;2.80;;;;;;;;;;5090340;28;20060;-76
2022/06/17 11:37:29;;;;;;;8.88;2.65;;;;;;;;;;5088546;28;20056;-77
2022/06/17 11:40:08;;;;;;;6.85;2.70;;;;;;;;;;5082151;28;20056;-77
2022/06/17 11:42:34;;;;;;;7.63;2.63;;;;;;;;;;5088003;28;20051;-74
2022/06/17 11:45:02;;;;;;;7.45;2.95;;;;;;;;;;5088935;28;20049;-74
2022/06/17 11:47:30;;;;;;;6.13;2.72;;;;;;;;;;5085266;28;20071;-74
2022/06/17 11:50:10;;;;;;;5.60;2.70;;;;;;;;;;5086855;28;20048;-74
2022/06/17 11:52:37;;;;;;;7.40;2.60;;;;;;;;;;5079270;28;20537;-74
2022/06/17 11:55:04;;;;;;;5.90;2.88;;;;;;;;;;5095502;27;20491;-75
2022/06/17 11:57:33;;;;;;;6.60;2.92;;;;;;;;;;5085301;28;20048;-75
2022/06/17 12:00:04;;;;;;;6.73;2.50;;;;;;;;;;5095602;27;20148;-76
2022/06/17 12:02:30;;;;;;;7.15;2.38;;;;;;;;;;5095419;28;20514;-75
2022/06/17 12:05:08;;;;;;;7.55;2.78;;;;;;;;;;5085356;27;20067;-76
2022/06/17 12:07:41;;;;;;;6.28;2.97;;;;;;;;;;5081199;28;20777;-75
2022/06/17 12:10:24;;;;;;;7.25;2.85;;;;;;;;;;5076954;28;20118;-74
2022/06/17 12:13:04;;;;;;;6.50;2.85;;;;;;;;;;5095960;27;20125;-76
2022/06/17 12:15:40;;;;;;;7.40;2.95;;;;;;;;;;5081810;28;20052;-75
2022/06/17 12:18:11;;;;;;;5.20;2.58;;;;;;;;;;5081377;28;20210;-74
2022/06/17 12:20:50;;;;;;;4.10;2.35;;;;;;;;;;5075260;28;20487;-74
2022/06/17 12:23:21;;;;;;;5.70;2.60;;;;;;;;;;5082840;28;21009;-74
2022/06/17 12:25:54;;;;;;;4.88;2.28;;;;;;;;;;5092116;27;20052;-75
2022/06/17 12:28:26;;;;;;;5.57;2.30;;;;;;;;;;5084681;28;20059;-75
2022/06/17 12:31:02;;;;;;;5.22;2.58;;;;;;;;;;5085478;28;20051;-76
2022/06/17 12:33:38;;;;;;;5.43;2.38;;;;;;;;;;5103228;28;20081;-76
2022/06/17 12:36:11;;;;;;;5.97;2.30;;;;;;;;;;5102254;28;20179;-76
2022/06/17 12:38:59;;;;;;;5.32;2.28;;;;;;;;;;5066193;28;20048;-76
2022/06/17 12:41:33;;;;;;;4.35;1.88;;;;;;;;;;5084573;28;20057;-75
2022/06/17 12:44:15;;;;;;;5.22;2.10;;;;;;;;;;5106883;28;20052;-75
2022/06/17 12:47:04;;;;;;;5.88;2.35;;;;;;;;;;5106013;28;20114;-75
2022/06/17 12:55:36;;;;;;;3.58;1.73;;;;;;;;;;5085280;28;20055;-76
2022/06/17 12:58:26;;;;;;;5.70;2.10;;;;;;;;;;5099141;28;20056;-75
2022/06/17 13:00:56;;;;;;;4.40;1.90;;;;;;;;;;5072666;28;20051;-76
2022/06/17 13:03:32;;;;;;;5.10;1.80;;;;;;;;;;5100836;28;20048;-76
2022/06/17 13:06:02;;;;;;;7.50;1.92;;;;;;;;;;5105190;27;20101;-76
2022/06/17 13:08:29;;;;;;;7.75;1.98;;;;;;;;;;5087457;28;20047;-75
2022/06/17 13:10:56;;;;;;;5.45;1.95;;;;;;;;;;5085528;28;20056;-76
2022/06/17 13:13:22;;;;;;;8.13;2.10;;;;;;;;;;5081993;28;20049;-75
2022/06/17 13:15:50;;;;;;;5.65;1.90;;;;;;;;;;5086626;28;20054;-75
2022/06/17 13:18:19;;;;;;;4.70;1.95;;;;;;;;;;5104376;28;20059;-76
2022/06/17 13:20:52;;;;;;;5.53;2.00;;;;;;;;;;5095834;28;20051;-76
2022/06/17 13:23:33;;;;;;;4.28;1.85;;;;;;;;;;5084371;28;20562;-75
2022/06/17 13:26:15;;;;;;;5.30;1.90;;;;;;;;;;5092480;27;20062;-76
2022/06/17 13:28:41;;;;;;;4.93;1.70;;;;;;;;;;5098124;28;20041;-75
2022/06/17 13:31:14;;;;;;;5.35;1.98;;;;;;;;;;5083274;28;20074;-76
2022/06/17 13:34:02;;;;;;;4.63;1.90;;;;;;;;;;5093127;28;20052;-76
2022/06/17 13:36:57;;;;;;;3.95;1.90;;;;;;;;;;5090105;28;20503;-75
2022/06/17 13:39:26;;;;;;;5.50;2.15;;;;;;;;;;5064414;28;20598;-76
2022/06/17 13:41:58;;;;;;;6.23;1.90;;;;;;;;;;5095122;28;20143;-77
2022/06/17 13:44:33;;;;;;;5.15;1.92;;;;;;;;;;5092106;28;20350;-77
2022/06/17 13:47:19;;;;;;;5.47;1.70;;;;;;;;;;5086646;28;20059;-76
2022/06/17 13:50:04;;;;;;;6.38;2.47;;;;;;;;;;5092708;27;20045;-76
2022/06/17 13:52:49;;;;;;;10.57;2.17;;;;;;;;;;5089455;28;20056;-76
2022/06/17 13:55:23;;;;;;;6.28;2.00;;;;;;;;;;5088978;28;20509;-76
2022/06/17 13:58:08;;;;;;;4.10;2.00;;;;;;;;;;5094459;27;20868;-76
2022/06/17 14:00:40;;;;;;;5.55;2.15;;;;;;;;;;5093407;27;20537;-76
2022/06/17 14:03:48;;;;;;;4.07;1.98;;;;;;;;;;5087440;28;20056;-77
2022/06/17 14:06:15;;;;;;;7.90;1.90;;;;;;;;;;5094408;28;20056;-76
2022/06/17 14:08:47;;;;;;;6.05;1.70;;;;;;;;;;5091429;28;20309;-77
2022/06/17 14:11:37;;;;;;;4.93;1.80;;;;;;;;;;5089894;28;20087;-76
2022/06/17 14:14:03;;;;;;;;;;;;;;;;;;5095038;27;20083;-76
2022/06/17 14:16:30;;;;;;;4.85;1.90;;;;;;;;;;5092562;28;47461;-76
2022/06/17 14:18:59;;;;;;;3.83;1.60;;;;;;;;;;5091917;28;20052;-76
2022/06/17 14:21:26;;;;;;;4.85;1.70;;;;;;;;;;5090471;28;20529;-76
2022/06/17 14:23:54;;;;;;;3.78;1.83;;;;;;;;;;5087632;28;20140;-76
2022/06/17 14:26:36;;;;;;;5.57;1.70;;;;;;;;;;5095497;28;20063;-76
2022/06/17 14:29:10;;;;;;;6.45;2.03;;;;;;;;;;5097267;28;20052;-76
2022/06/17 14:31:37;;;;;;;6.15;2.00;;;;;;;;;;5095002;28;20048;-76
2022/06/17 14:34:16;;;;;;;6.97;2.08;;;;;;;;;;5100074;28;20533;-76
2022/06/17 14:36:53;;;;;;;5.35;2.13;;;;;;;;;;5092622;27;20052;-76
2022/06/17 14:39:38;;;;;;;3.50;1.60;;;;;;;;;;5079087;28;21069;-76
2022/06/17 14:42:13;;;;;;;4.40;1.73;;;;;;;;;;5088982;28;20059;-76
2022/06/17 14:45:10;;;;;;;6.95;1.75;;;;;;;;;;5099196;27;20874;-76
2022/06/17 14:47:41;;;;;;;3.25;1.63;;;;;;;;;;5044075;28;20408;-77
2022/06/17 14:50:19;;;;;;;6.78;2.10;;;;;;;;;;5062411;28;20063;-77
2022/06/17 14:52:52;;;;;;;6.30;1.95;;;;;;;;;;5063317;28;20237;-76
2022/06/17 14:55:34;;;;;;;5.13;2.00;;;;;;;;;;5077383;28;20048;-75
2022/06/17 14:58:00;;;;;;;3.97;1.70;;;;;;;;;;5060529;28;20052;-76
2022/06/17 15:00:31;;;;;;;4.95;1.80;;;;;;;;;;5083896;28;20088;-76
2022/06/17 15:02:58;;;;;;;6.10;1.80;;;;;;;;;;5083240;28;20059;-76
2022/06/17 15:05:34;;;;;;;3.92;1.50;;;;;;;;;;5083192;28;20079;-76
2022/06/17 15:08:14;;;;;;;4.82;1.70;;;;;;;;;;5082841;28;20059;-77
2022/06/17 15:10:42;;;;;;;4.90;1.80;;;;;;;;;;5082848;28;20365;-75
2022/06/17 15:14:07;;;;;;;7.30;1.83;;;;;;;;;;5083181;28;20055;-76
2022/06/17 15:16:02;;;;;;;4.65;1.70;;;;;;;;;;5085412;28;20236;-76